Abadi — V8V2002 — position and weather

sailwx.info

Track history (hours):
 
Tides and Currents Weather Stations Pressure Air Temp Water Temp Dewpoint Dewpoint Depression Visibility Wind Speed Wind Dir Waves Ship Positions

Abadi

Last reported at 2015-Mar-18 13:23 UTC. Time now 2015-Apr-01 01:14 UTC.
Position N 19°13' E 119°56'.
Warning: this ship's position is 13 days out of date.

Type: Ship (hazmat cat A). MMSI: 508011000.

Date/timePositionNaut miles runAvg speedWind from/ knotsBaromVisibWave heightAir tempDewpointWater temp
2015-Mar-18 13:23N 19°13' E 119°56'1617.7
2015-Mar-18 12:28N 19°29' E 119°55'1817.5
2015-Mar-18 11:27N 19°47' E 119°53'16016.2
2015-Mar-18 01:34N 22°27' E 119°56'1515.4
2015-Mar-18 00:34N 22°42' E 120°01'1111.4
2015-Mar-17 23:33N 22°49' E 120°10'0 0.0
2015-Mar-16 23:31N 22°50' E 120°10'4 4.5
2015-Mar-16 22:33N 22°50' E 120°05'8 8.0
2015-Mar-16 21:33N 22°43' E 120°00'1212.1
2015-Mar-16 20:33N 22°31' E 119°59'1615.7
2015-Mar-16 19:34N 22°16' E 119°54'  
Track history (hours):
 
Tides and Currents Weather Stations Pressure Air Temp Water Temp Dewpoint Dewpoint Depression Visibility Wind Speed Wind Dir Waves Ship Positions

Abadi

Last reported at 2015-Mar-18 13:23 UTC. Time now 2015-Apr-01 01:14 UTC.
Position N 19°13' E 119°56'.
Warning: this ship's position is 13 days out of date.

Type: Ship (hazmat cat A). MMSI: 508011000.

Date/timePositionNaut miles runAvg speedWind from/ knotsBaromVisibWave heightAir tempDewpointWater temp
2015-Mar-18 13:23N 19°13' E 119°56'1617.7
2015-Mar-18 12:28N 19°29' E 119°55'1817.5
2015-Mar-18 11:27N 19°47' E 119°53'16016.2
2015-Mar-18 01:34N 22°27' E 119°56'1515.4
2015-Mar-18 00:34N 22°42' E 120°01'1111.4
2015-Mar-17 23:33N 22°49' E 120°10'0 0.0
2015-Mar-16 23:31N 22°50' E 120°10'4 4.5
2015-Mar-16 22:33N 22°50' E 120°05'8 8.0
2015-Mar-16 21:33N 22°43' E 120°00'1212.1
2015-Mar-16 20:33N 22°31' E 119°59'1615.7
2015-Mar-16 19:34N 22°16' E 119°54'  

Dump ship's entire track history